This demonstration page uses our WeatherBlox Daily Observations layout. Learn more.

41.55636, -103.73856

Hourly Observations for April 19, 2019

Temp ( °F °C ) Dew Point ( °F °C ) Humidity (%) Winds ( mph kmh ) Pressure ( in mb ) Visibility ( mi km ) Precip ( " mm )
12:57 am 00:57 Clear 51 10.4 21 -5.9 32 32 N 18 30 30.17 1022 10 16.0934 0 0
1:56 am 01:56 Clear 47 8.3 23 -5.2 38 38 NNE 14 22 30.19 1023 10 16.0934 0 0
2:56 am 02:56 Clear 44 6.5 23 -5 44 44 NNE 12 19 30.2 1023 10 16.0934 0 0
3:56 am 03:56 Clear 42 5.8 22 -5.3 45 45 NNE 9 15 30.21 1023 10 16.0934 0 0
4:56 am 04:56 Clear 40 4.2 22 -5.5 50 50 Calm 30.21 1023 10 16.0934 0 0
5:56 am 05:56 Clear 38 3.2 22 -5.3 54 54 Calm 30.22 1023 10 16.0934 0 0
6:56 am 06:56 Clear 40 4.7 21 -6.2 45 45 S 5 7 30.19 1022 10 16.0934 0 0
7:56 am 07:56 Clear 35 1.5 23 -5 62 62 SSW 9 15 30.22 1023 10 16.0934 0 0
8:56 am 08:56 Clear 35 1.4 24 -4.2 67 67 SW 14 22 30.19 1022 10 16.0934 0 0
9:56 am 09:56 Clear 35 1.9 25 -4.1 65 65 SW 14 22 30.19 1022 10 16.0934 0 0
10:56 am 10:56 Clear 35 1.4 25 -3.7 69 69 SW 18 30 30.16 1021 10 16.0934 0 0
11:56 am 11:56 Mostly Clear 38 3.5 26 -3.6 60 60 SW 17 28 30.1 1019 10 16.0934 0 0
12:56 pm 12:56 Sunny 37 2.7 28 -2 71 71 WSW 12 19 30.13 1020 10 16.0934 0 0
1:56 pm 13:56 Sunny 47 8.6 30 -1 51 51 W 13 20 30.1 1019 10 16.0934 0 0
2:56 pm 14:56 Sunny 52 11.3 34 0.9 49 49 W 16 26 30.1 1019 10 16.0934 0 0
3:56 pm 15:56 Sunny 59 15.1 32 -0.1 36 36 NW 20 31 30.07 1018 10 16.0934 0 0
4:56 pm 16:56 Sunny 63 17.1 30 -0.9 30 30 NNW 14 22 30.05 1018 10 16.0934 0 0
5:56 pm 17:56 Sunny 65 18.1 33 0.5 31 31 N 13 20 30.04 1017 10 16.0934 0 0
6:56 pm 18:56 Sunny 66 19 31 -0.3 27 27 N 17 28 30.01 1016 10 16.0934 0 0
7:56 pm 19:56 Sunny 68 19.8 32 0 27 27 N 10 17 30 1016 10 16.0934 0 0
8:56 pm 20:56 Sunny 69 20.3 32 -0.2 25 25 NW 12 19 29.98 1015 10 16.0934 0 0
9:58 pm 21:58 Sunny 69 20.3 31 -0.7 25 25 Calm 29.73 1007 10 16.0934 0 0
10:58 pm 22:58 Sunny 70 20.9 31 -0.8 23 23 NNW 7 11 29.7 1006 10 16.0934 0 0
11:58 pm 23:58 Sunny 70 20.9 31 -0.6 24 24 N 7 11 29.69 1006 10 16.0934 0 0

Powered by AerisWeather